Allenwood, New Jersey
Current Conditions -  °F | °C
As of 8:55 AM on Wednesday 28 Jan 2015 (Local Time) from KBLM Reporting Station
Clear Clear  
Wind Chill:   Ceiling: Unl
Heat Index: 19°   Visibility: 10mi
Dew Point:   Wind: 16mph
Humidity: 46%   Direction: 310°NW
Pressure: 30.02"   Gusts: 23mph
Location:  40.14°N, 74.1°W
Report Text: KBLM 281355Z AUTO 31014G20KT 10SM CLR M07/M17 A3002 RMK AO1
Loading
Personal Weather Stations






























Interactive Weather Map New forecast layout! Learn more

10-Day Weather Forecast

Advertisements
Track Severe Weather on mobile